createdAt,value
2019-03-17T00:02:06.953Z,99685.58
2019-03-17T00:04:36.495Z,99687.11
2019-03-17T00:07:06.041Z,99683.72
2019-03-17T00:09:35.563Z,99690.32
2019-03-17T00:12:05.120Z,99686.80
2019-03-17T00:14:34.805Z,99696.55
2019-03-17T00:17:04.344Z,99696.41
2019-03-17T00:19:33.844Z,99693.06
2019-03-17T00:22:03.396Z,99683.82
2019-03-17T00:24:32.919Z,99681.25
2019-03-17T00:27:02.453Z,99679.91
2019-03-17T00:29:32.055Z,99681.06
2019-03-17T00:32:01.574Z,99675.16
2019-03-17T00:34:43.176Z,99678.56
2019-03-17T00:37:02.358Z,99681.66
2019-03-17T00:39:31.882Z,99683.63
2019-03-17T00:42:01.421Z,99685.05
2019-03-17T00:44:30.947Z,99678.56
2019-03-17T00:47:00.470Z,99678.05
2019-03-17T00:49:29.983Z,99683.25
2019-03-17T00:51:59.540Z,99689.98
2019-03-17T00:54:29.101Z,99686.41
2019-03-17T00:56:58.721Z,99688.08
2019-03-17T00:59:28.265Z,99684.98
2019-03-17T01:01:57.815Z,99689.11
2019-03-17T01:04:27.347Z,99691.40
2019-03-17T01:06:56.882Z,99694.42
2019-03-17T01:09:26.412Z,99692.70
2019-03-17T01:11:55.942Z,99693.64
2019-03-17T01:14:25.476Z,99685.50
2019-03-17T01:16:55.016Z,99687.69
2019-03-17T01:19:24.536Z,99681.78
2019-03-17T01:21:54.080Z,99686.71
2019-03-17T01:24:23.684Z,99683.05
2019-03-17T01:26:53.222Z,99679.55
2019-03-17T01:29:22.740Z,99684.80
2019-03-17T01:31:52.268Z,99685.74
2019-03-17T01:34:21.783Z,99685.36
2019-03-17T01:36:51.355Z,99687.82
2019-03-17T01:39:20.847Z,99683.05
2019-03-17T01:41:50.352Z,99685.74
2019-03-17T01:44:19.944Z,99684.10
2019-03-17T01:46:49.478Z,99689.22
2019-03-17T01:49:19.017Z,99693.12
2019-03-17T01:51:48.519Z,99697.13
2019-03-17T01:54:18.123Z,99693.08
2019-03-17T01:56:47.649Z,99694.10
2019-03-17T01:59:17.253Z,99697.17
2019-03-17T02:01:46.803Z,99706.88
2019-03-17T02:04:16.357Z,99704.23
2019-03-17T02:06:45.888Z,99706.56
2019-03-17T02:09:15.434Z,99702.65
2019-03-17T02:11:44.946Z,99704.51
2019-03-17T02:14:14.471Z,99704.19
2019-03-17T02:16:44.001Z,99708.05
2019-03-17T02:19:13.549Z,99720.23
2019-03-17T02:21:43.073Z,99708.93
2019-03-17T02:24:12.658Z,99713.53
2019-03-17T02:26:42.183Z,99721.20
2019-03-17T02:29:11.730Z,99722.22
2019-03-17T02:31:41.249Z,99718.41
2019-03-17T02:34:12.105Z,99721.13
2019-03-17T02:36:41.893Z,99719.87
2019-03-17T02:39:11.422Z,99717.70
2019-03-17T02:41:40.958Z,99722.55
2019-03-17T02:44:10.477Z,99733.19
2019-03-17T02:46:40.006Z,99738.47
2019-03-17T02:49:09.544Z,99738.52
2019-03-17T02:51:39.082Z,99746.01
2019-03-17T02:54:08.609Z,99740.95
2019-03-17T02:56:38.184Z,99744.88
2019-03-17T02:59:07.732Z,99745.78
2019-03-17T03:01:37.260Z,99754.66
2019-03-17T03:04:06.953Z,99753.77
2019-03-17T03:06:36.473Z,99750.98
2019-03-17T03:09:07.059Z,99755.98
2019-03-17T03:11:36.733Z,99758.10
2019-03-17T03:14:06.315Z,99762.16
2019-03-17T03:16:35.815Z,99768.02
2019-03-17T03:19:05.352Z,99766.21
2019-03-17T03:21:34.884Z,99768.80
2019-03-17T03:24:04.446Z,99768.52
2019-03-17T03:26:33.957Z,99767.75
2019-03-17T03:29:03.492Z,99763.91
2019-03-17T03:31:33.048Z,99767.33
2019-03-17T03:34:02.605Z,99764.71
2019-03-17T03:36:32.121Z,99765.73
2019-03-17T03:39:01.661Z,99762.44
2019-03-17T03:41:31.221Z,99768.70
2019-03-17T03:44:00.836Z,99766.33
2019-03-17T03:46:30.378Z,99769.35
2019-03-17T03:48:59.907Z,99766.50
2019-03-17T03:51:29.444Z,99778.84
2019-03-17T03:53:58.980Z,99774.91
2019-03-17T03:56:28.522Z,99780.98
2019-03-17T03:58:58.055Z,99776.52
2019-03-17T04:01:27.635Z,99777.02
2019-03-17T04:03:57.180Z,99777.59
2019-03-17T04:06:27.307Z,99768.36
2019-03-17T04:08:56.936Z,99766.75
2019-03-17T04:11:26.486Z,99772.87
2019-03-17T04:13:56.001Z,99769.39
2019-03-17T04:16:25.535Z,99773.98
2019-03-17T04:18:55.074Z,99780.69
2019-03-17T04:21:24.602Z,99789.68
2019-03-17T04:23:54.134Z,99785.46
2019-03-17T04:26:23.683Z,99786.38
2019-03-17T04:28:53.211Z,99784.26
2019-03-17T04:31:22.748Z,99784.55
2019-03-17T04:33:52.296Z,99795.44
2019-03-17T04:36:21.833Z,99795.87
2019-03-17T04:38:51.345Z,99797.00
2019-03-17T04:41:20.876Z,99801.00
2019-03-17T04:43:50.416Z,99796.08
2019-03-17T04:46:19.950Z,99798.52
2019-03-17T04:48:49.510Z,99799.23
2019-03-17T04:51:19.070Z,99797.95
2019-03-17T04:53:48.648Z,99799.31
2019-03-17T04:56:18.175Z,99795.97
2019-03-17T04:58:47.723Z,99804.27
2019-03-17T05:01:17.249Z,99799.47
2019-03-17T05:03:46.780Z,99794.45
2019-03-17T05:06:16.329Z,99800.48
2019-03-17T05:08:45.876Z,99793.66
2019-03-17T05:11:15.401Z,99783.12
2019-03-17T05:13:44.957Z,99786.33
2019-03-17T05:16:14.490Z,99793.83
2019-03-17T05:18:44.012Z,99797.38
2019-03-17T05:21:13.521Z,99801.72
2019-03-17T05:23:43.071Z,99801.88
2019-03-17T05:26:12.587Z,99805.45
2019-03-17T05:28:42.125Z,99801.64
2019-03-17T05:31:11.669Z,99795.04
2019-03-17T05:33:41.225Z,99806.14
2019-03-17T05:36:10.748Z,99802.33
2019-03-17T05:38:40.288Z,99810.44
2019-03-17T05:41:09.808Z,99810.59
2019-03-17T05:43:39.332Z,99808.66
2019-03-17T05:46:08.859Z,99811.08
2019-03-17T05:48:38.407Z,99814.15
2019-03-17T05:51:07.926Z,99816.24
2019-03-17T05:53:40.282Z,99823.41
2019-03-17T05:56:08.700Z,99820.94
2019-03-17T05:58:38.224Z,99822.81
2019-03-17T06:01:07.755Z,99825.44
2019-03-17T06:03:37.291Z,99830.97
2019-03-17T06:06:06.802Z,99834.08
2019-03-17T06:08:36.356Z,99836.58
2019-03-17T06:11:05.885Z,99831.70
2019-03-17T06:13:35.418Z,99836.41
2019-03-17T06:16:05.002Z,99833.99
2019-03-17T06:18:34.547Z,99844.52
2019-03-17T06:21:04.109Z,99841.34
2019-03-17T06:23:33.712Z,99835.44
2019-03-17T06:26:03.195Z,99844.95
2019-03-17T06:28:32.738Z,99846.10
2019-03-17T06:31:02.271Z,99853.19
2019-03-17T06:33:31.812Z,99856.59
2019-03-17T06:36:01.360Z,99857.02
2019-03-17T06:38:30.879Z,99855.30
2019-03-17T06:41:00.411Z,99857.75
2019-03-17T06:43:29.975Z,99868.05
2019-03-17T06:45:59.536Z,99876.20
2019-03-17T06:48:29.058Z,99872.81
2019-03-17T06:50:58.596Z,99869.36
2019-03-17T06:53:28.136Z,99868.58
2019-03-17T06:55:57.668Z,99869.34
2019-03-17T06:58:27.229Z,99874.50
2019-03-17T07:00:56.754Z,99874.82
2019-03-17T07:03:26.290Z,99884.96
2019-03-17T07:05:55.837Z,99881.20
2019-03-17T07:08:25.390Z,99888.77
2019-03-17T07:10:54.908Z,99894.27
2019-03-17T07:13:24.456Z,99895.20
2019-03-17T07:15:54.003Z,99887.48
2019-03-17T07:18:23.548Z,99896.87
2019-03-17T07:20:53.152Z,99893.04
2019-03-17T07:23:22.694Z,99903.05
2019-03-17T07:25:52.253Z,99904.27
2019-03-17T07:28:21.787Z,99900.03
2019-03-17T07:30:51.322Z,99904.05
2019-03-17T07:33:20.858Z,99906.85
2019-03-17T07:35:50.391Z,99902.84
2019-03-17T07:38:19.953Z,99904.79
2019-03-17T07:40:49.475Z,99916.67
2019-03-17T07:43:19.005Z,99916.41
2019-03-17T07:45:48.545Z,99913.49
2019-03-17T07:48:18.100Z,99918.84
2019-03-17T07:50:47.605Z,99916.42
2019-03-17T07:53:17.151Z,99906.31
2019-03-17T07:55:46.701Z,99900.75
2019-03-17T07:58:16.227Z,99908.95
2019-03-17T08:00:45.757Z,99910.84
2019-03-17T08:03:15.334Z,99910.41
2019-03-17T08:05:44.860Z,99912.04
2019-03-17T08:08:14.390Z,99910.34
2019-03-17T08:10:43.947Z,99904.38
2019-03-17T08:13:13.486Z,99901.91
2019-03-17T08:15:43.038Z,99900.48
2019-03-17T08:18:12.569Z,99905.81
2019-03-17T08:20:42.105Z,99900.36
2019-03-17T08:23:11.652Z,99903.27
2019-03-17T08:25:41.228Z,99895.27
2019-03-17T08:28:10.831Z,99890.08
2019-03-17T08:30:52.159Z,99888.95
2019-03-17T08:33:11.721Z,99893.20
2019-03-17T08:35:41.473Z,99898.89
2019-03-17T08:38:21.284Z,99886.41
2019-03-17T08:40:42.403Z,99888.59
2019-03-17T08:43:12.123Z,99889.91
2019-03-17T08:45:41.658Z,99884.66
2019-03-17T08:48:11.204Z,99886.70
2019-03-17T08:50:40.930Z,99892.36
2019-03-17T08:53:10.470Z,99894.55
2019-03-17T08:55:40.042Z,99895.67
2019-03-17T08:58:09.707Z,99886.84
2019-03-17T09:00:39.264Z,99890.40
2019-03-17T09:03:09.002Z,99889.98
2019-03-17T09:05:38.802Z,99887.56
2019-03-17T09:08:08.367Z,99887.58
2019-03-17T09:10:37.993Z,99886.95
2019-03-17T09:13:07.711Z,99885.00
2019-03-17T09:15:37.456Z,99878.75
2019-03-17T09:18:07.009Z,99882.00
2019-03-17T09:20:36.661Z,99881.58
2019-03-17T09:23:06.202Z,99874.16
2019-03-17T09:25:35.838Z,99872.37
2019-03-17T09:28:05.380Z,99870.45
2019-03-17T09:30:34.962Z,99867.28
2019-03-17T09:33:04.494Z,99868.07
2019-03-17T09:35:34.013Z,99867.23
2019-03-17T09:38:03.546Z,99865.20
2019-03-17T09:40:33.102Z,99865.27
2019-03-17T09:43:02.614Z,99865.16
2019-03-17T09:45:32.185Z,99858.96
2019-03-17T09:48:01.719Z,99858.03
2019-03-17T09:50:31.236Z,99853.52
2019-03-17T09:53:00.773Z,99853.55
2019-03-17T09:55:30.287Z,99844.41
2019-03-17T09:57:59.810Z,99851.08
2019-03-17T10:00:29.333Z,99844.81
2019-03-17T10:02:58.863Z,99847.76
2019-03-17T10:05:28.359Z,99844.73
2019-03-17T10:07:57.946Z,99836.84
2019-03-17T10:10:27.504Z,99839.59
2019-03-17T10:12:57.044Z,99831.32
2019-03-17T10:15:26.583Z,99824.38
2019-03-17T10:17:56.136Z,99825.83
2019-03-17T10:20:25.681Z,99822.80
2019-03-17T10:22:55.321Z,99821.93
2019-03-17T10:25:24.991Z,99823.56
2019-03-17T10:27:54.552Z,99815.78
2019-03-17T10:30:24.097Z,99803.84
2019-03-17T10:32:53.650Z,99810.41
2019-03-17T10:35:23.180Z,99792.19
2019-03-17T10:37:52.723Z,99796.77
2019-03-17T10:40:22.278Z,99792.66
2019-03-17T10:42:51.940Z,99789.31
2019-03-17T10:45:21.480Z,99780.41
2019-03-17T10:47:52.203Z,99786.80
2019-03-17T10:50:22.382Z,99783.94
2019-03-17T10:52:51.926Z,99785.28
2019-03-17T10:55:21.445Z,99779.18
2019-03-17T10:57:51.025Z,99773.88
2019-03-17T11:00:20.550Z,99768.83
2019-03-17T11:02:50.078Z,99771.75
2019-03-17T11:05:19.606Z,99772.00
2019-03-17T11:07:49.548Z,99761.39
2019-03-17T11:10:19.075Z,99760.30
2019-03-17T11:12:48.625Z,99758.77
2019-03-17T11:15:18.167Z,99752.09
2019-03-17T11:17:47.712Z,99741.41
2019-03-17T11:20:17.279Z,99742.45
2019-03-17T11:22:46.827Z,99734.75
2019-03-17T11:25:16.385Z,99736.59
2019-03-17T11:27:45.912Z,99745.02
2019-03-17T11:30:15.575Z,99745.02
2019-03-17T11:32:45.100Z,99738.75
2019-03-17T11:35:14.643Z,99738.60
2019-03-17T11:37:44.187Z,99735.84
2019-03-17T11:40:14.219Z,99724.67
2019-03-17T11:42:43.742Z,99728.39
2019-03-17T11:45:13.861Z,99720.90
2019-03-17T11:47:43.401Z,99716.41
2019-03-17T11:50:13.283Z,99705.95
2019-03-17T11:52:42.822Z,99703.53
2019-03-17T11:55:14.835Z,99703.00
2019-03-17T11:57:44.368Z,99704.02
2019-03-17T12:00:14.698Z,99698.41
2019-03-17T12:02:44.242Z,99700.56
2019-03-17T12:05:13.811Z,99693.00
2019-03-17T12:07:43.453Z,99694.83
2019-03-17T12:10:13.994Z,99685.05
2019-03-17T12:12:43.510Z,99681.06
2019-03-17T12:15:14.723Z,99684.98
2019-03-17T12:17:44.276Z,99671.58
2019-03-17T12:20:13.898Z,99676.64
2019-03-17T12:22:43.429Z,99671.88
2019-03-17T12:25:13.326Z,99674.11
2019-03-17T12:27:42.867Z,99671.86
2019-03-17T12:30:19.539Z,99667.23
2019-03-17T12:32:49.363Z,99661.30
2019-03-17T12:35:18.933Z,99668.16
2019-03-17T12:37:48.480Z,99660.23
2019-03-17T12:40:18.114Z,99657.56
2019-03-17T12:42:47.694Z,99657.56
2019-03-17T12:45:17.215Z,99658.47
2019-03-17T12:47:46.737Z,99660.78
2019-03-17T12:50:16.309Z,99656.56
2019-03-17T12:52:45.827Z,99653.26
2019-03-17T12:55:15.362Z,99653.56
2019-03-17T12:57:44.991Z,99649.92
2019-03-17T13:00:15.640Z,99648.50
2019-03-17T13:02:45.182Z,99639.65
2019-03-17T13:05:14.736Z,99640.59
2019-03-17T13:07:44.287Z,99622.30
2019-03-17T13:10:16.414Z,99634.03
2019-03-17T13:12:46.425Z,99632.64
2019-03-17T13:15:15.989Z,99627.91
2019-03-17T13:17:45.522Z,99627.03
2019-03-17T13:20:15.135Z,99626.69
2019-03-17T13:22:44.703Z,99629.44
2019-03-17T13:25:14.275Z,99622.01
2019-03-17T13:27:43.800Z,99620.33
2019-03-17T13:30:13.652Z,99621.13
2019-03-17T13:32:43.194Z,99616.69
2019-03-17T13:35:12.760Z,99614.48
2019-03-17T13:37:42.321Z,99615.57
2019-03-17T13:40:12.648Z,99609.80
2019-03-17T13:42:42.180Z,99612.58
2019-03-17T13:45:12.009Z,99606.18
2019-03-17T13:47:41.554Z,99601.16
2019-03-17T13:50:13.125Z,99612.94
2019-03-17T13:52:42.668Z,99601.12
2019-03-17T13:55:12.332Z,99606.61
2019-03-17T13:57:42.665Z,99593.70
2019-03-17T14:00:15.343Z,99593.61
2019-03-17T14:02:45.001Z,99588.07
2019-03-17T14:05:14.588Z,99593.36
2019-03-17T14:07:44.469Z,99590.33
2019-03-17T14:10:15.516Z,99589.73
2019-03-17T14:12:45.082Z,99586.34
2019-03-17T14:15:15.270Z,99591.72
2019-03-17T14:17:44.830Z,99579.88
2019-03-17T14:20:16.022Z,99581.13
2019-03-17T14:22:45.528Z,99586.89
2019-03-17T14:25:17.672Z,99580.27
2019-03-17T14:27:47.209Z,99579.19
2019-03-17T14:30:17.201Z,99576.13
2019-03-17T14:32:46.750Z,99572.73
2019-03-17T14:35:16.292Z,99574.89
2019-03-17T14:37:45.810Z,99574.52
2019-03-17T14:40:15.450Z,99571.42
2019-03-17T14:42:45.339Z,99573.32
2019-03-17T14:45:15.332Z,99568.14
2019-03-17T14:47:44.880Z,99572.74
2019-03-17T14:50:16.318Z,99569.43
2019-03-17T14:52:45.846Z,99564.88
2019-03-17T14:55:15.383Z,99565.33
2019-03-17T14:57:44.937Z,99567.22
2019-03-17T15:00:16.490Z,99568.30
2019-03-17T15:02:46.254Z,99568.93
2019-03-17T15:05:15.800Z,99575.34
2019-03-17T15:07:45.412Z,99578.56
2019-03-17T15:10:16.460Z,99575.14
2019-03-17T15:12:46.035Z,99569.78
2019-03-17T15:15:16.280Z,99573.48
2019-03-17T15:17:45.812Z,99575.05
2019-03-17T15:20:16.920Z,99569.23
2019-03-17T15:22:46.483Z,99577.96
2019-03-17T15:25:16.059Z,99573.36
2019-03-17T15:27:45.576Z,99575.00
2019-03-17T15:30:20.152Z,99575.10
2019-03-17T15:32:49.746Z,99575.24
2019-03-17T15:35:19.312Z,99583.95
2019-03-17T15:37:48.863Z,99582.61
2019-03-17T15:40:18.445Z,99580.88
2019-03-17T15:42:47.962Z,99584.27
2019-03-17T15:45:17.534Z,99586.86
2019-03-17T15:47:47.144Z,99586.44
2019-03-17T15:50:17.545Z,99587.91
2019-03-17T15:52:47.091Z,99584.80
2019-03-17T15:55:16.632Z,99585.75
2019-03-17T15:57:46.168Z,99591.78
2019-03-17T16:00:24.738Z,99593.31
2019-03-17T16:02:48.936Z,99590.97
2019-03-17T16:05:18.493Z,99592.33
2019-03-17T16:07:48.031Z,99592.58
2019-03-17T16:10:18.583Z,99589.47
2019-03-17T16:12:48.178Z,99594.69
2019-03-17T16:15:17.825Z,99584.03
2019-03-17T16:17:47.386Z,99590.53
2019-03-17T16:20:18.068Z,99589.16
2019-03-17T16:22:47.643Z,99589.37
2019-03-17T16:25:17.804Z,99597.52
2019-03-17T16:27:47.361Z,99600.10
2019-03-17T16:30:21.196Z,99599.11
2019-03-17T16:32:50.746Z,99599.34
2019-03-17T16:35:20.281Z,99593.41
2019-03-17T16:37:49.819Z,99600.69
2019-03-17T16:40:20.851Z,99595.98
2019-03-17T16:42:53.436Z,99604.03
2019-03-17T16:45:21.682Z,99603.05
2019-03-17T16:47:51.213Z,99599.77
2019-03-17T16:50:20.758Z,99601.48
2019-03-17T16:52:50.310Z,99601.69
2019-03-17T16:55:19.847Z,99600.35
2019-03-17T16:57:49.398Z,99602.28
2019-03-17T17:00:19.762Z,99604.16
2019-03-17T17:02:49.365Z,99593.49
2019-03-17T17:05:18.943Z,99594.59
2019-03-17T17:07:48.486Z,99595.30
2019-03-17T17:10:18.633Z,99591.76
2019-03-17T17:12:48.194Z,99593.81
2019-03-17T17:15:19.737Z,99594.39
2019-03-17T17:17:49.655Z,99592.80
2019-03-17T17:20:21.450Z,99595.13
2019-03-17T17:22:51.175Z,99590.37
2019-03-17T17:25:20.727Z,99588.95
2019-03-17T17:27:50.257Z,99588.56
2019-03-17T17:30:19.842Z,99583.36
2019-03-17T17:32:49.652Z,99585.46
2019-03-17T17:35:19.227Z,99588.84
2019-03-17T17:37:48.801Z,99593.11
2019-03-17T17:40:18.517Z,99593.09
2019-03-17T17:42:48.053Z,99593.70
2019-03-17T17:45:17.729Z,99597.27
2019-03-17T17:47:47.279Z,99595.20
2019-03-17T17:50:17.418Z,99601.53
2019-03-17T17:52:46.958Z,99600.91
2019-03-17T17:55:16.497Z,99593.24
2019-03-17T17:57:46.029Z,99601.11
2019-03-17T18:00:18.730Z,99598.82
2019-03-17T18:02:48.279Z,99594.86
2019-03-17T18:05:17.831Z,99585.29
2019-03-17T18:07:47.363Z,99592.68
2019-03-17T18:10:16.964Z,99588.22
2019-03-17T18:12:46.511Z,99589.77
2019-03-17T18:15:17.527Z,99587.59
2019-03-17T18:17:47.106Z,99594.13
2019-03-17T18:20:16.686Z,99592.19
2019-03-17T18:22:46.210Z,99593.42
2019-03-17T18:25:15.771Z,99589.88
2019-03-17T18:27:45.310Z,99592.05
2019-03-17T18:30:15.972Z,99586.45
2019-03-17T18:32:45.538Z,99588.01
2019-03-17T18:35:15.146Z,99581.77
2019-03-17T18:37:44.683Z,99581.14
2019-03-17T18:40:14.785Z,99586.14
2019-03-17T18:42:44.334Z,99578.95
2019-03-17T18:45:15.807Z,99580.91
2019-03-17T18:47:45.365Z,99581.83
2019-03-17T18:50:20.171Z,99576.63
2019-03-17T18:52:47.307Z,99574.20
2019-03-17T18:55:16.980Z,99583.52
2019-03-17T18:57:46.523Z,99582.87
2019-03-17T19:00:17.083Z,99553.70
2019-03-17T19:02:46.605Z,99581.50
2019-03-17T19:05:19.300Z,99582.92
2019-03-17T19:07:47.453Z,99580.75
2019-03-17T19:10:16.984Z,99581.50
2019-03-17T19:12:46.586Z,99580.56
2019-03-17T19:15:16.248Z,99575.99
2019-03-17T19:17:45.773Z,99582.23
2019-03-17T19:20:15.763Z,99577.47
2019-03-17T19:22:45.326Z,99580.44
2019-03-17T19:25:15.485Z,99582.41
2019-03-17T19:27:45.046Z,99583.14
2019-03-17T19:30:15.973Z,99579.33
2019-03-17T19:32:45.698Z,99584.09
2019-03-17T19:35:15.277Z,99576.95
2019-03-17T19:37:44.817Z,99579.97
2019-03-17T19:40:15.046Z,99575.99
2019-03-17T19:42:57.435Z,99581.94
2019-03-17T19:45:15.868Z,99584.81
2019-03-17T19:47:45.423Z,99591.78
2019-03-17T19:50:15.122Z,99584.21
2019-03-17T19:52:44.674Z,99587.30
2019-03-17T19:55:14.209Z,99584.05
2019-03-17T19:57:43.760Z,99587.55
2019-03-17T20:00:14.670Z,99572.30
2019-03-17T20:02:47.152Z,99575.33
2019-03-17T20:05:15.584Z,99571.11
2019-03-17T20:07:45.137Z,99572.34
2019-03-17T20:10:17.312Z,99567.55
2019-03-17T20:12:46.866Z,99569.05
2019-03-17T20:15:16.443Z,99568.47
2019-03-17T20:17:46.051Z,99575.04
2019-03-17T20:20:15.611Z,99581.87
2019-03-17T20:22:45.233Z,99581.17
2019-03-17T20:25:14.814Z,99578.11
2019-03-17T20:27:44.436Z,99588.11
2019-03-17T20:30:14.065Z,99584.03
2019-03-17T20:32:43.627Z,99581.83
2019-03-17T20:35:13.168Z,99578.44
2019-03-17T20:37:42.737Z,99582.08
2019-03-17T20:40:12.507Z,99573.81
2019-03-17T20:42:42.064Z,99574.31
2019-03-17T20:45:11.634Z,99566.09
2019-03-17T20:47:41.170Z,99566.69
2019-03-17T20:50:11.551Z,99564.38
2019-03-17T20:52:41.106Z,99565.80
2019-03-17T20:55:10.715Z,99571.30
2019-03-17T20:57:40.298Z,99559.09
2019-03-17T21:00:12.018Z,99559.08
2019-03-17T21:02:41.569Z,99551.83
2019-03-17T21:05:11.211Z,99544.36
2019-03-17T21:07:40.786Z,99550.58
2019-03-17T21:10:11.161Z,99548.08
2019-03-17T21:12:40.875Z,99546.11
2019-03-17T21:15:11.811Z,99550.08
2019-03-17T21:17:41.365Z,99548.30
2019-03-17T21:20:13.043Z,99540.08
2019-03-17T21:22:42.638Z,99542.94
2019-03-17T21:25:12.354Z,99536.39
2019-03-17T21:27:41.883Z,99533.78
2019-03-17T21:30:14.532Z,99533.27
2019-03-17T21:32:44.078Z,99526.40
2019-03-17T21:35:13.625Z,99533.27
2019-03-17T21:37:43.162Z,99535.45
2019-03-17T21:40:12.732Z,99531.78
2019-03-17T21:42:42.253Z,99528.89
2019-03-17T21:45:11.820Z,99524.84
2019-03-17T21:47:41.366Z,99524.41
2019-03-17T21:50:12.957Z,99515.73
2019-03-17T21:52:42.496Z,99517.78
2019-03-17T21:55:12.071Z,99518.42
2019-03-17T21:57:41.592Z,99506.19
2019-03-17T22:00:13.333Z,99504.42
2019-03-17T22:02:42.860Z,99506.02
2019-03-17T22:05:13.222Z,99510.17
2019-03-17T22:07:49.520Z,99507.99
2019-03-17T22:10:14.171Z,99508.50
2019-03-17T22:12:43.684Z,99504.42
2019-03-17T22:15:13.250Z,99505.98
2019-03-17T22:17:42.789Z,99502.76
2019-03-17T22:20:12.495Z,99505.45
2019-03-17T22:22:42.018Z,99498.03
2019-03-17T22:25:11.565Z,99493.71
2019-03-17T22:27:41.186Z,99494.88
2019-03-17T22:30:12.112Z,99497.02
2019-03-17T22:32:41.649Z,99493.79
2019-03-17T22:35:11.223Z,99499.42
2019-03-17T22:37:40.763Z,99495.45
2019-03-17T22:40:11.774Z,99496.80
2019-03-17T22:42:41.334Z,99493.34
2019-03-17T22:45:11.017Z,99498.75
2019-03-17T22:47:40.538Z,99499.92
2019-03-17T22:50:10.617Z,99505.69
2019-03-17T22:52:40.145Z,99501.23
2019-03-17T22:55:09.918Z,99505.72
2019-03-17T22:57:39.464Z,99499.92
2019-03-17T23:00:11.761Z,99499.27
2019-03-17T23:02:41.287Z,99504.24
2019-03-17T23:05:10.810Z,99507.98
2019-03-17T23:07:40.379Z,99496.64
2019-03-17T23:10:10.499Z,99509.00
2019-03-17T23:12:40.056Z,99505.03
2019-03-17T23:15:09.764Z,99505.70
2019-03-17T23:17:39.317Z,99505.52
2019-03-17T23:20:09.578Z,99504.17
2019-03-17T23:22:39.151Z,99509.88
2019-03-17T23:25:09.000Z,99504.83
2019-03-17T23:27:38.547Z,99497.23
2019-03-17T23:30:08.831Z,99507.14
2019-03-17T23:32:38.367Z,99511.09
2019-03-17T23:35:08.239Z,99505.81
2019-03-17T23:37:37.812Z,99505.84
2019-03-17T23:40:09.657Z,99501.52
2019-03-17T23:42:38.700Z,99515.13
2019-03-17T23:45:08.452Z,99512.23
2019-03-17T23:47:38.030Z,99506.73
2019-03-17T23:50:07.868Z,99512.53
2019-03-17T23:52:37.423Z,99516.83
2019-03-17T23:55:07.362Z,99513.81
2019-03-17T23:57:36.904Z,99511.73
